sensor_id;sensor_type;location;lat;lon;timestamp;pressure;altitude;pressure_sealevel;temperature;humidity
7754;BME280;3921;42.266;23.122;2022-12-22T00:00:23;95670.94;;;-0.44;72.55
7754;BME280;3921;42.266;23.122;2022-12-22T00:03:11;95841.06;;;0.54;72.00
7754;BME280;3921;42.266;23.122;2022-12-22T00:05:56;95719.50;;;-0.02;72.51
7754;BME280;3921;42.266;23.122;2022-12-22T00:08:40;95841.81;;;0.74;72.29
7754;BME280;3921;42.266;23.122;2022-12-22T00:11:25;95839.50;;;0.78;72.05
7754;BME280;3921;42.266;23.122;2022-12-22T00:14:10;95844.25;;;0.72;71.97
7754;BME280;3921;42.266;23.122;2022-12-22T00:16:55;95827.25;;;0.59;72.41
7754;BME280;3921;42.266;23.122;2022-12-22T00:19:43;95833.47;;;0.70;71.74
7754;BME280;3921;42.266;23.122;2022-12-22T00:22:27;95974.41;;;1.57;71.97
7754;BME280;3921;42.266;23.122;2022-12-22T00:25:12;95865.44;;;0.88;71.77
7754;BME280;3921;42.266;23.122;2022-12-22T00:27:57;95835.41;;;0.79;71.75
7754;BME280;3921;42.266;23.122;2022-12-22T00:30:42;95840.31;;;0.77;71.85
7754;BME280;3921;42.266;23.122;2022-12-22T00:33:27;95879.78;;;0.97;71.54
7754;BME280;3921;42.266;23.122;2022-12-22T00:36:13;95845.13;;;0.74;71.90
7754;BME280;3921;42.266;23.122;2022-12-22T00:38:58;95839.28;;;0.72;71.35
7754;BME280;3921;42.266;23.122;2022-12-22T00:41:42;95935.25;;;1.24;71.51
7754;BME280;3921;42.266;23.122;2022-12-22T00:44:27;95839.28;;;0.72;71.88
7754;BME280;3921;42.266;23.122;2022-12-22T00:47:13;95789.69;;;0.24;72.39
7754;BME280;3921;42.266;23.122;2022-12-22T00:49:58;95837.47;;;0.68;72.16
7754;BME280;3921;42.266;23.122;2022-12-22T00:52:44;95782.84;;;0.40;71.55
7754;BME280;3921;42.266;23.122;2022-12-22T00:55:29;95849.41;;;0.78;71.73
7754;BME280;3921;42.266;23.122;2022-12-22T00:58:17;95916.81;;;1.16;72.26
7754;BME280;3921;42.266;23.122;2022-12-22T01:01:03;95841.75;;;0.72;71.67
7754;BME280;3921;42.266;23.122;2022-12-22T01:03:47;95964.69;;;1.39;71.80
7754;BME280;3921;42.266;23.122;2022-12-22T01:06:33;95881.97;;;0.89;71.84
7754;BME280;3921;42.266;23.122;2022-12-22T01:09:26;95831.25;;;0.56;71.80
7754;BME280;3921;42.266;23.122;2022-12-22T01:12:14;95849.53;;;0.59;71.71
7754;BME280;3921;42.266;23.122;2022-12-22T01:15:03;95817.16;;;0.32;72.00
7754;BME280;3921;42.266;23.122;2022-12-22T01:17:47;95815.84;;;0.19;72.15
7754;BME280;3921;42.266;23.122;2022-12-22T01:20:31;95812.72;;;0.03;72.67
7754;BME280;3921;42.266;23.122;2022-12-22T01:23:16;95869.13;;;0.34;72.57
7754;BME280;3921;42.266;23.122;2022-12-22T01:26:02;95841.81;;;0.10;72.67
7754;BME280;3921;42.266;23.122;2022-12-22T01:28:46;95884.97;;;0.39;72.84
7754;BME280;3921;42.266;23.122;2022-12-22T01:31:31;95822.34;;;-0.04;72.25
7754;BME280;3921;42.266;23.122;2022-12-22T01:34:16;95824.63;;;-0.08;72.59
7754;BME280;3921;42.266;23.122;2022-12-22T01:37:00;95780.16;;;-0.29;72.87
7754;BME280;3921;42.266;23.122;2022-12-22T01:39:44;95822.41;;;-0.02;72.43
7754;BME280;3921;42.266;23.122;2022-12-22T01:42:33;95936.53;;;0.71;72.44
7754;BME280;3921;42.266;23.122;2022-12-22T01:45:21;95525.34;;;-2.08;72.26
7754;BME280;3921;42.266;23.122;2022-12-22T01:48:09;95933.28;;;0.72;72.52
7754;BME280;3921;42.266;23.122;2022-12-22T01:50:55;95780.44;;;-0.23;72.48
7754;BME280;3921;42.266;23.122;2022-12-22T01:53:40;95855.50;;;0.22;72.21
7754;BME280;3921;42.266;23.122;2022-12-22T01:56:24;95746.63;;;-0.45;72.33
7754;BME280;3921;42.266;23.122;2022-12-22T01:59:10;95923.56;;;0.56;72.55
7754;BME280;3921;42.266;23.122;2022-12-22T02:01:54;95866.13;;;0.20;72.86
7754;BME280;3921;42.266;23.122;2022-12-22T02:04:42;95801.69;;;-0.27;72.63
7754;BME280;3921;42.266;23.122;2022-12-22T02:07:43;95957.75;;;0.66;72.87
7754;BME280;3921;42.266;23.122;2022-12-22T02:10:52;95839.94;;;0.04;72.57
7754;BME280;3921;42.266;23.122;2022-12-22T02:13:46;95847.72;;;0.13;72.27
7754;BME280;3921;42.266;23.122;2022-12-22T02:16:40;95829.75;;;-0.04;72.81
7754;BME280;3921;42.266;23.122;2022-12-22T02:19:50;95824.69;;;-0.07;73.09
7754;BME280;3921;42.266;23.122;2022-12-22T02:22:51;95816.34;;;-0.10;73.48
7754;BME280;3921;42.266;23.122;2022-12-22T02:25:41;95831.63;;;0.02;73.27
7754;BME280;3921;42.266;23.122;2022-12-22T02:28:30;95391.31;;;-2.55;72.50
7754;BME280;3921;42.266;23.122;2022-12-22T02:31:16;95831.94;;;0.10;72.70
7754;BME280;3921;42.266;23.122;2022-12-22T02:34:00;95843.47;;;0.30;71.89
7754;BME280;3921;42.266;23.122;2022-12-22T02:36:50;95826.53;;;0.18;72.09
7754;BME280;3921;42.266;23.122;2022-12-22T02:39:45;95828.50;;;0.06;72.52
7754;BME280;3921;42.266;23.122;2022-12-22T02:42:35;95825.34;;;0.10;72.56
7754;BME280;3921;42.266;23.122;2022-12-22T02:45:28;95932.31;;;0.69;72.43
7754;BME280;3921;42.266;23.122;2022-12-22T02:48:19;95847.91;;;0.18;72.48
7754;BME280;3921;42.266;23.122;2022-12-22T02:51:08;95810.19;;;0.01;72.33
7754;BME280;3921;42.266;23.122;2022-12-22T02:53:54;95849.72;;;0.22;72.53
7754;BME280;3921;42.266;23.122;2022-12-22T02:56:40;95814.34;;;0.02;72.39
7754;BME280;3921;42.266;23.122;2022-12-22T02:59:25;95648.75;;;-1.05;71.77
7754;BME280;3921;42.266;23.122;2022-12-22T03:02:11;95780.16;;;-0.29;71.69
7754;BME280;3921;42.266;23.122;2022-12-22T03:04:55;95808.69;;;-0.16;72.33
7754;BME280;3921;42.266;23.122;2022-12-22T03:07:40;95811.16;;;-0.16;71.90
7754;BME280;3921;42.266;23.122;2022-12-22T03:10:24;95858.47;;;0.14;71.60
7754;BME280;3921;42.266;23.122;2022-12-22T03:13:09;95845.63;;;0.02;71.46
7754;BME280;3921;42.266;23.122;2022-12-22T03:15:53;95833.28;;;0.02;71.58
7754;BME280;3921;42.266;23.122;2022-12-22T03:18:39;95847.53;;;0.09;71.61
7754;BME280;3921;42.266;23.122;2022-12-22T03:21:23;95836.94;;;-0.10;71.90
7754;BME280;3921;42.266;23.122;2022-12-22T03:24:08;95919.53;;;0.58;71.86
7754;BME280;3921;42.266;23.122;2022-12-22T03:26:52;95827.50;;;0.01;71.58
7754;BME280;3921;42.266;23.122;2022-12-22T03:29:20;95938.81;;;0.67;71.11
7754;BME280;3921;42.266;23.122;2022-12-22T03:31:47;95817.13;;;-0.11;71.50
7754;BME280;3921;42.266;23.122;2022-12-22T03:34:15;95678.41;;;-1.04;71.51
7754;BME280;3921;42.266;23.122;2022-12-22T03:36:42;95677.06;;;-1.17;71.71
7754;BME280;3921;42.266;23.122;2022-12-22T03:39:10;95510.59;;;-2.08;71.84
7754;BME280;3921;42.266;23.122;2022-12-22T03:41:37;95822.66;;;-0.17;72.20
7754;BME280;3921;42.266;23.122;2022-12-22T03:44:21;95401.06;;;-2.76;71.91
7754;BME280;3921;42.266;23.122;2022-12-22T03:47:05;95606.06;;;-1.64;71.89
7754;BME280;3921;42.266;23.122;2022-12-22T03:49:34;95823.72;;;-0.31;72.62
7754;BME280;3921;42.266;23.122;2022-12-22T03:52:01;95581.56;;;-1.80;71.79
7754;BME280;3921;42.266;23.122;2022-12-22T03:54:28;95734.19;;;-0.87;72.38
7754;BME280;3921;42.266;23.122;2022-12-22T03:56:55;95642.88;;;-1.28;72.29
7754;BME280;3921;42.266;23.122;2022-12-22T03:59:23;95639.19;;;-1.38;72.14
7754;BME280;3921;42.266;23.122;2022-12-22T04:01:51;95433.91;;;-2.56;71.73
7754;BME280;3921;42.266;23.122;2022-12-22T04:04:23;95615.69;;;-1.49;71.80
7754;BME280;3921;42.266;23.122;2022-12-22T04:06:52;95627.31;;;-1.27;71.72
7754;BME280;3921;42.266;23.122;2022-12-22T04:09:20;95814.38;;;-0.17;71.67
7754;BME280;3921;42.266;23.122;2022-12-22T04:11:49;95822.16;;;-0.08;71.50
7754;BME280;3921;42.266;23.122;2022-12-22T04:14:33;95923.94;;;0.44;72.09
7754;BME280;3921;42.266;23.122;2022-12-22T04:17:01;95817.72;;;-0.17;71.69
7754;BME280;3921;42.266;23.122;2022-12-22T04:19:33;95952.19;;;0.51;70.73
7754;BME280;3921;42.266;23.122;2022-12-22T04:22:11;95383.09;;;-2.75;69.96
7754;BME280;3921;42.266;23.122;2022-12-22T04:24:41;95598.03;;;-1.60;70.85
7754;BME280;3921;42.266;23.122;2022-12-22T04:27:09;95692.00;;;-1.14;70.55
7754;BME280;3921;42.266;23.122;2022-12-22T04:29:36;95779.75;;;-0.59;71.22
7754;BME280;3921;42.266;23.122;2022-12-22T04:32:03;95806.66;;;-0.25;71.01
7754;BME280;3921;42.266;23.122;2022-12-22T04:34:30;95921.09;;;0.56;70.54
7754;BME280;3921;42.266;23.122;2022-12-22T04:36:57;95674.66;;;-0.96;70.14
7754;BME280;3921;42.266;23.122;2022-12-22T04:39:26;95812.28;;;-0.08;69.86
7754;BME280;3921;42.266;23.122;2022-12-22T04:41:53;95755.56;;;-0.68;70.29
7754;BME280;3921;42.266;23.122;2022-12-22T04:44:20;95627.59;;;-1.41;69.93
7754;BME280;3921;42.266;23.122;2022-12-22T04:46:47;95818.66;;;-0.13;69.75
7754;BME280;3921;42.266;23.122;2022-12-22T04:49:14;95756.25;;;-0.51;69.74
7754;BME280;3921;42.266;23.122;2022-12-22T04:51:41;95674.97;;;-1.08;70.04
7754;BME280;3921;42.266;23.122;2022-12-22T04:54:09;95426.63;;;-2.53;69.81
7754;BME280;3921;42.266;23.122;2022-12-22T04:56:38;95815.59;;;-0.29;70.44
7754;BME280;3921;42.266;23.122;2022-12-22T04:59:05;95828.94;;;-0.23;70.86
7754;BME280;3921;42.266;23.122;2022-12-22T05:01:32;95799.34;;;-0.43;70.66
7754;BME280;3921;42.266;23.122;2022-12-22T05:03:59;95807.59;;;-0.42;71.25
7754;BME280;3921;42.266;23.122;2022-12-22T05:06:26;95548.44;;;-2.06;71.19
7754;BME280;3921;42.266;23.122;2022-12-22T05:08:53;95478.75;;;-2.62;71.69
7754;BME280;3921;42.266;23.122;2022-12-22T05:11:21;95597.63;;;-1.89;71.69
7754;BME280;3921;42.266;23.122;2022-12-22T05:13:49;95591.66;;;-1.74;71.65
7754;BME280;3921;42.266;23.122;2022-12-22T05:16:16;95472.06;;;-2.27;70.75
7754;BME280;3921;42.266;23.122;2022-12-22T05:18:44;95857.72;;;-0.05;71.42
7754;BME280;3921;42.266;23.122;2022-12-22T05:21:14;95357.22;;;-3.04;71.04
7754;BME280;3921;42.266;23.122;2022-12-22T05:23:41;95494.47;;;-2.41;71.09
7754;BME280;3921;42.266;23.122;2022-12-22T05:26:08;95763.22;;;-0.62;71.33
7754;BME280;3921;42.266;23.122;2022-12-22T05:28:36;95410.31;;;-2.90;70.88
7754;BME280;3921;42.266;23.122;2022-12-22T05:31:07;95650.28;;;-1.28;70.45
7754;BME280;3921;42.266;23.122;2022-12-22T05:33:38;95402.16;;;-2.70;69.23
7754;BME280;3921;42.266;23.122;2022-12-22T05:36:11;95777.94;;;-0.44;69.43
7754;BME280;3921;42.266;23.122;2022-12-22T05:38:41;95560.34;;;-1.96;69.31
7754;BME280;3921;42.266;23.122;2022-12-22T05:41:10;95541.75;;;-2.09;69.42
7754;BME280;3921;42.266;23.122;2022-12-22T05:43:37;95558.78;;;-2.14;69.51
7754;BME280;3921;42.266;23.122;2022-12-22T05:46:08;95958.09;;;0.34;70.42
7754;BME280;3921;42.266;23.122;2022-12-22T05:48:35;95556.41;;;-2.12;68.92
7754;BME280;3921;42.266;23.122;2022-12-22T05:51:09;95731.19;;;-1.00;69.20
7754;BME280;3921;42.266;23.122;2022-12-22T05:53:36;95983.06;;;0.40;69.48
7754;BME280;3921;42.266;23.122;2022-12-22T05:56:04;95953.28;;;0.37;69.46
7754;BME280;3921;42.266;23.122;2022-12-22T05:58:32;95853.88;;;-0.38;70.43
7754;BME280;3921;42.266;23.122;2022-12-22T06:01:00;95950.56;;;0.31;69.43
7754;BME280;3921;42.266;23.122;2022-12-22T06:03:29;95540.66;;;-2.16;69.37
7754;BME280;3921;42.266;23.122;2022-12-22T06:05:57;95521.59;;;-2.20;69.01
7754;BME280;3921;42.266;23.122;2022-12-22T06:08:24;95732.72;;;-0.83;69.40
7754;BME280;3921;42.266;23.122;2022-12-22T06:11:02;95674.47;;;-1.20;69.75
7754;BME280;3921;42.266;23.122;2022-12-22T06:13:50;95416.44;;;-2.62;69.93
7754;BME280;3921;42.266;23.122;2022-12-22T06:16:17;95585.16;;;-1.72;70.41
7754;BME280;3921;42.266;23.122;2022-12-22T06:18:48;95714.84;;;-0.77;71.24
7754;BME280;3921;42.266;23.122;2022-12-22T06:21:15;95718.25;;;-0.95;70.90
7754;BME280;3921;42.266;23.122;2022-12-22T06:23:42;95592.25;;;-1.61;70.83
7754;BME280;3921;42.266;23.122;2022-12-22T06:26:09;95822.53;;;-0.20;71.29
7754;BME280;3921;42.266;23.122;2022-12-22T06:28:36;95848.50;;;-0.09;72.01
7754;BME280;3921;42.266;23.122;2022-12-22T06:31:04;95492.19;;;-2.17;71.63
7754;BME280;3921;42.266;23.122;2022-12-22T06:33:33;95431.25;;;-2.61;71.46
7754;BME280;3921;42.266;23.122;2022-12-22T06:36:05;95838.31;;;-0.16;71.34
7754;BME280;3921;42.266;23.122;2022-12-22T06:38:33;95823.75;;;-0.30;70.65
7754;BME280;3921;42.266;23.122;2022-12-22T06:41:03;95944.69;;;0.29;70.60
7754;BME280;3921;42.266;23.122;2022-12-22T06:43:37;95772.25;;;-0.82;70.53
7754;BME280;3921;42.266;23.122;2022-12-22T06:46:03;95784.47;;;-0.85;70.44
7754;BME280;3921;42.266;23.122;2022-12-22T06:48:30;95822.25;;;-0.66;72.11
7754;BME280;3921;42.266;23.122;2022-12-22T06:50:58;95876.66;;;-0.24;71.40
7754;BME280;3921;42.266;23.122;2022-12-22T06:53:29;95599.16;;;-1.91;71.47
7754;BME280;3921;42.266;23.122;2022-12-22T06:55:56;95732.41;;;-1.10;71.32
7754;BME280;3921;42.266;23.122;2022-12-22T06:58:23;95707.75;;;-1.29;71.25
7754;BME280;3921;42.266;23.122;2022-12-22T07:00:59;95390.34;;;-3.33;71.39
7754;BME280;3921;42.266;23.122;2022-12-22T07:03:26;95720.75;;;-1.14;72.13
7754;BME280;3921;42.266;23.122;2022-12-22T07:05:53;95613.31;;;-1.87;72.59
7754;BME280;3921;42.266;23.122;2022-12-22T07:08:20;95706.44;;;-1.41;71.71
7754;BME280;3921;42.266;23.122;2022-12-22T07:10:49;95752.63;;;-0.98;70.64
7754;BME280;3921;42.266;23.122;2022-12-22T07:13:26;95827.75;;;-0.52;71.11
7754;BME280;3921;42.266;23.122;2022-12-22T07:15:54;95799.00;;;-0.71;71.63
7754;BME280;3921;42.266;23.122;2022-12-22T07:18:21;95882.19;;;-0.30;71.76
7754;BME280;3921;42.266;23.122;2022-12-22T07:20:50;95858.09;;;-0.55;71.85
7754;BME280;3921;42.266;23.122;2022-12-22T07:23:18;95771.09;;;-0.90;71.89
7754;BME280;3921;42.266;23.122;2022-12-22T07:25:45;95629.84;;;-1.65;71.77
7754;BME280;3921;42.266;23.122;2022-12-22T07:28:14;95594.91;;;-1.95;71.61
7754;BME280;3921;42.266;23.122;2022-12-22T07:30:41;95911.81;;;-0.11;72.50
7754;BME280;3921;42.266;23.122;2022-12-22T07:33:08;95858.06;;;-0.36;72.79
7754;BME280;3921;42.266;23.122;2022-12-22T07:35:36;95853.88;;;-0.38;73.50
7754;BME280;3921;42.266;23.122;2022-12-22T07:38:03;95435.22;;;-2.82;72.67
7754;BME280;3921;42.266;23.122;2022-12-22T07:40:30;95790.28;;;-0.83;73.44
7754;BME280;3921;42.266;23.122;2022-12-22T07:42:58;95831.16;;;-0.30;72.89
7754;BME280;3921;42.266;23.122;2022-12-22T07:45:26;95831.59;;;-0.19;72.51
7754;BME280;3921;42.266;23.122;2022-12-22T07:47:58;95944.69;;;0.48;72.74
7754;BME280;3921;42.266;23.122;2022-12-22T07:50:25;95733.19;;;-0.92;73.05
7754;BME280;3921;42.266;23.122;2022-12-22T07:52:53;95850.19;;;-0.08;73.15
7754;BME280;3921;42.266;23.122;2022-12-22T07:55:22;95565.75;;;-1.66;73.04
7754;BME280;3921;42.266;23.122;2022-12-22T07:57:50;95500.94;;;-2.04;73.06
7754;BME280;3921;42.266;23.122;2022-12-22T08:00:19;95844.44;;;-0.07;73.26
7754;BME280;3921;42.266;23.122;2022-12-22T08:02:52;95712.25;;;-0.61;73.65
7754;BME280;3921;42.266;23.122;2022-12-22T08:05:20;95621.28;;;-1.34;73.61
7754;BME280;3921;42.266;23.122;2022-12-22T08:07:48;95806.50;;;-0.09;73.70
7754;BME280;3921;42.266;23.122;2022-12-22T08:10:16;95700.53;;;-0.65;73.86
7754;BME280;3921;42.266;23.122;2022-12-22T08:12:44;95880.97;;;0.41;74.11
7754;BME280;3921;42.266;23.122;2022-12-22T08:15:11;95707.91;;;-0.46;73.84
7754;BME280;3921;42.266;23.122;2022-12-22T08:17:38;95622.19;;;-0.92;74.22
7754;BME280;3921;42.266;23.122;2022-12-22T08:20:08;95802.94;;;0.26;73.55
7754;BME280;3921;42.266;23.122;2022-12-22T08:22:36;95763.50;;;0.07;73.98
7754;BME280;3921;42.266;23.122;2022-12-22T08:25:04;95437.31;;;-1.95;73.83
7754;BME280;3921;42.266;23.122;2022-12-22T08:27:34;95722.97;;;-0.40;74.30
7754;BME280;3921;42.266;23.122;2022-12-22T08:30:06;95312.44;;;-2.58;73.99
7754;BME280;3921;42.266;23.122;2022-12-22T08:32:41;95488.44;;;-1.68;74.14
7754;BME280;3921;42.266;23.122;2022-12-22T08:35:11;95612.31;;;-0.71;75.19
7754;BME280;3921;42.266;23.122;2022-12-22T08:37:40;95497.78;;;-1.61;75.10
7754;BME280;3921;42.266;23.122;2022-12-22T08:40:11;95544.94;;;-1.12;75.04
7754;BME280;3921;42.266;23.122;2022-12-22T08:42:46;95458.94;;;-1.67;75.12
7754;BME280;3921;42.266;23.122;2022-12-22T08:45:21;95744.56;;;0.08;75.15
7754;BME280;3921;42.266;23.122;2022-12-22T08:47:51;95719.09;;;-0.12;75.75
7754;BME280;3921;42.266;23.122;2022-12-22T08:50:19;95746.97;;;0.29;75.83
7754;BME280;3921;42.266;23.122;2022-12-22T08:52:48;95856.75;;;0.98;75.50
7754;BME280;3921;42.266;23.122;2022-12-22T08:55:15;95783.53;;;0.36;75.96
7754;BME280;3921;42.266;23.122;2022-12-22T08:57:48;95623.13;;;-0.46;76.04
7754;BME280;3921;42.266;23.122;2022-12-22T09:00:15;95624.88;;;-0.23;75.93
7754;BME280;3921;42.266;23.122;2022-12-22T09:02:48;95783.41;;;0.77;76.67
7754;BME280;3921;42.266;23.122;2022-12-22T09:05:15;95394.00;;;-1.48;76.36
7754;BME280;3921;42.266;23.122;2022-12-22T09:07:44;95334.38;;;-1.82;76.18
7754;BME280;3921;42.266;23.122;2022-12-22T09:10:13;95770.16;;;0.98;76.71
7754;BME280;3921;42.266;23.122;2022-12-22T09:12:40;95924.56;;;1.72;76.25
7754;BME280;3921;42.266;23.122;2022-12-22T09:15:07;95704.28;;;0.77;76.34
7754;BME280;3921;42.266;23.122;2022-12-22T09:17:35;95333.06;;;-1.52;76.50
7754;BME280;3921;42.266;23.122;2022-12-22T09:20:03;95444.59;;;-0.69;76.73
7754;BME280;3921;42.266;23.122;2022-12-22T09:22:30;95535.78;;;-0.05;76.96
7754;BME280;3921;42.266;23.122;2022-12-22T09:24:59;95570.88;;;0.10;76.35
7754;BME280;3921;42.266;23.122;2022-12-22T09:27:26;95658.16;;;0.79;77.10
7754;BME280;3921;42.266;23.122;2022-12-22T09:29:53;95605.44;;;0.57;76.57
7754;BME280;3921;42.266;23.122;2022-12-22T09:32:20;95374.38;;;-0.79;76.99
7754;BME280;3921;42.266;23.122;2022-12-22T09:34:53;95526.28;;;0.30;76.85
7754;BME280;3921;42.266;23.122;2022-12-22T09:37:20;95737.53;;;1.33;77.62
7754;BME280;3921;42.266;23.122;2022-12-22T09:39:47;95541.25;;;0.34;76.96
7754;BME280;3921;42.266;23.122;2022-12-22T09:42:18;95354.31;;;-0.64;76.68
7754;BME280;3921;42.266;23.122;2022-12-22T09:44:48;95413.69;;;-0.36;77.22
7754;BME280;3921;42.266;23.122;2022-12-22T09:47:21;95706.19;;;1.59;77.14
7754;BME280;3921;42.266;23.122;2022-12-22T09:49:52;95503.69;;;0.44;77.31
7754;BME280;3921;42.266;23.122;2022-12-22T09:52:23;95520.06;;;0.66;77.34
7754;BME280;3921;42.266;23.122;2022-12-22T09:54:54;95736.81;;;1.89;77.24
7754;BME280;3921;42.266;23.122;2022-12-22T09:57:26;95297.09;;;-0.54;77.36
7754;BME280;3921;42.266;23.122;2022-12-22T10:00:05;95540.50;;;0.86;77.24
7754;BME280;3921;42.266;23.122;2022-12-22T10:02:39;95281.06;;;-0.65;76.94
7754;BME280;3921;42.266;23.122;2022-12-22T10:05:20;95711.28;;;1.90;77.16
7754;BME280;3921;42.266;23.122;2022-12-22T10:07:57;95799.66;;;2.70;77.69
7754;BME280;3921;42.266;23.122;2022-12-22T10:10:28;95479.34;;;0.82;77.33
7754;BME280;3921;42.266;23.122;2022-12-22T10:13:00;95459.47;;;0.79;77.18
7754;BME280;3921;42.266;23.122;2022-12-22T10:15:34;95680.84;;;2.22;77.23
7754;BME280;3921;42.266;23.122;2022-12-22T10:18:13;95754.41;;;2.79;77.39
7754;BME280;3921;42.266;23.122;2022-12-22T10:20:42;95396.75;;;0.50;76.83
7754;BME280;3921;42.266;23.122;2022-12-22T10:23:15;95653.06;;;2.32;76.59
7754;BME280;3921;42.266;23.122;2022-12-22T10:25:59;95291.34;;;0.23;76.17
7754;BME280;3921;42.266;23.122;2022-12-22T10:28:33;95505.00;;;1.38;75.78
7754;BME280;3921;42.266;23.122;2022-12-22T10:31:14;95653.56;;;2.51;76.07
7754;BME280;3921;42.266;23.122;2022-12-22T10:33:43;95542.03;;;1.92;75.29
7754;BME280;3921;42.266;23.122;2022-12-22T10:36:11;95618.50;;;2.38;75.13
7754;BME280;3921;42.266;23.122;2022-12-22T10:38:52;95419.56;;;1.24;74.90
7754;BME280;3921;42.266;23.122;2022-12-22T10:41:21;95546.22;;;1.95;75.22
7754;BME280;3921;42.266;23.122;2022-12-22T10:43:51;95713.13;;;3.12;75.22
7754;BME280;3921;42.266;23.122;2022-12-22T10:46:30;95278.34;;;0.58;74.51
7754;BME280;3921;42.266;23.122;2022-12-22T10:49:14;95720.22;;;3.30;74.80
7754;BME280;3921;42.266;23.122;2022-12-22T10:51:43;95523.66;;;2.16;74.33
7754;BME280;3921;42.266;23.122;2022-12-22T10:54:26;95669.03;;;3.04;73.77
7754;BME280;3921;42.266;23.122;2022-12-22T10:57:03;95457.19;;;1.71;73.14
7754;BME280;3921;42.266;23.122;2022-12-22T10:59:32;95296.41;;;0.85;72.94
7754;BME280;3921;42.266;23.122;2022-12-22T11:02:25;95677.19;;;3.31;72.94
7754;BME280;3921;42.266;23.122;2022-12-22T11:04:54;95436.84;;;1.81;72.85
7754;BME280;3921;42.266;23.122;2022-12-22T11:07:27;95775.88;;;3.70;72.40
7754;BME280;3921;42.266;23.122;2022-12-22T11:09:56;95661.28;;;3.25;71.84
7754;BME280;3921;42.266;23.122;2022-12-22T11:12:31;95556.44;;;2.67;71.60
7754;BME280;3921;42.266;23.122;2022-12-22T11:15:09;95621.94;;;3.05;71.45
7754;BME280;3921;42.266;23.122;2022-12-22T11:17:48;95457.09;;;1.98;71.07
7754;BME280;3921;42.266;23.122;2022-12-22T11:20:40;95717.47;;;3.87;71.49
7754;BME280;3921;42.266;23.122;2022-12-22T11:23:18;95630.69;;;3.26;71.28
7754;BME280;3921;42.266;23.122;2022-12-22T11:25:54;95624.13;;;3.28;71.41
7754;BME280;3921;42.266;23.122;2022-12-22T11:28:34;95636.69;;;3.34;70.92
7754;BME280;3921;42.266;23.122;2022-12-22T11:31:41;95457.50;;;2.46;71.22
7754;BME280;3921;42.266;23.122;2022-12-22T11:34:23;95610.38;;;3.42;70.76
7754;BME280;3921;42.266;23.122;2022-12-22T11:37:03;95570.28;;;3.27;71.06
7754;BME280;3921;42.266;23.122;2022-12-22T11:39:39;95330.31;;;1.81;71.18
7754;BME280;3921;42.266;23.122;2022-12-22T11:42:21;95533.66;;;3.16;70.58
7754;BME280;3921;42.266;23.122;2022-12-22T11:45:01;95552.50;;;3.44;71.10
7754;BME280;3921;42.266;23.122;2022-12-22T11:47:40;95496.31;;;3.12;70.98
7754;BME280;3921;42.266;23.122;2022-12-22T11:50:22;95291.91;;;1.97;70.68
7754;BME280;3921;42.266;23.122;2022-12-22T11:53:00;95409.44;;;2.76;70.56
7754;BME280;3921;42.266;23.122;2022-12-22T11:55:34;95184.78;;;1.38;70.22
7754;BME280;3921;42.266;23.122;2022-12-22T11:58:15;95344.94;;;2.39;70.39
7754;BME280;3921;42.266;23.122;2022-12-22T12:00:55;95574.00;;;3.82;70.19
7754;BME280;3921;42.266;23.122;2022-12-22T12:03:51;95666.59;;;4.48;70.17
7754;BME280;3921;42.266;23.122;2022-12-22T12:06:57;95172.91;;;1.57;69.61
7754;BME280;3921;42.266;23.122;2022-12-22T12:09:38;95613.69;;;4.16;70.31
7754;BME280;3921;42.266;23.122;2022-12-22T12:12:26;95145.34;;;1.44;70.49
7754;BME280;3921;42.266;23.122;2022-12-22T12:15:15;95446.41;;;3.39;69.48
7754;BME280;3921;42.266;23.122;2022-12-22T12:18:01;95558.59;;;3.96;69.90
7754;BME280;3921;42.266;23.122;2022-12-22T12:20:40;95512.78;;;3.85;69.43
7754;BME280;3921;42.266;23.122;2022-12-22T12:23:24;95360.94;;;2.88;69.26
7754;BME280;3921;42.266;23.122;2022-12-22T12:26:01;95344.06;;;2.74;68.88
7754;BME280;3921;42.266;23.122;2022-12-22T12:28:41;95357.78;;;2.97;68.47
7754;BME280;3921;42.266;23.122;2022-12-22T12:31:14;95436.00;;;3.57;67.90
7754;BME280;3921;42.266;23.122;2022-12-22T12:33:46;95206.16;;;2.05;67.57
7754;BME280;3921;42.266;23.122;2022-12-22T12:36:20;95301.84;;;2.72;67.57
7754;BME280;3921;42.266;23.122;2022-12-22T12:38:54;95146.22;;;1.83;67.13
7754;BME280;3921;42.266;23.122;2022-12-22T12:41:31;95169.88;;;2.07;66.81
7754;BME280;3921;42.266;23.122;2022-12-22T12:44:00;95146.78;;;1.72;65.77
7754;BME280;3921;42.266;23.122;2022-12-22T12:47:19;95637.50;;;4.88;66.18
7754;BME280;3921;42.266;23.122;2022-12-22T12:49:57;95630.16;;;4.94;65.70
7754;BME280;3921;42.266;23.122;2022-12-22T12:55:59;95540.28;;;4.35;64.86
7754;BME280;3921;42.266;23.122;2022-12-22T12:58:51;95621.91;;;4.98;65.03
7754;BME280;3921;42.266;23.122;2022-12-22T13:01:57;95624.47;;;5.01;64.78
7754;BME280;3921;42.266;23.122;2022-12-22T13:11:32;95610.47;;;5.10;64.16
7754;BME280;3921;42.266;23.122;2022-12-22T13:13:59;95540.88;;;4.69;64.57
7754;BME280;3921;42.266;23.122;2022-12-22T13:16:32;95537.56;;;4.70;64.51
7754;BME280;3921;42.266;23.122;2022-12-22T13:19:11;95153.97;;;2.36;63.95
7754;BME280;3921;42.266;23.122;2022-12-22T13:21:42;95145.50;;;2.25;63.78
7754;BME280;3921;42.266;23.122;2022-12-22T13:24:21;95340.78;;;3.56;64.04
7754;BME280;3921;42.266;23.122;2022-12-22T13:26:53;95595.72;;;5.20;64.91
7754;BME280;3921;42.266;23.122;2022-12-22T13:29:28;95575.38;;;4.94;64.88
7754;BME280;3921;42.266;23.122;2022-12-22T13:32:01;95227.03;;;2.95;65.21
7754;BME280;3921;42.266;23.122;2022-12-22T13:34:35;95062.47;;;2.06;64.96
7754;BME280;3921;42.266;23.122;2022-12-22T13:37:13;95384.63;;;4.01;64.72
7754;BME280;3921;42.266;23.122;2022-12-22T13:39:41;95418.97;;;4.19;65.30
7754;BME280;3921;42.266;23.122;2022-12-22T13:42:12;95501.97;;;4.72;65.09
7754;BME280;3921;42.266;23.122;2022-12-22T13:44:39;95387.09;;;3.99;64.86
7754;BME280;3921;42.266;23.122;2022-12-22T13:47:12;95591.75;;;5.33;65.03
7754;BME280;3921;42.266;23.122;2022-12-22T13:49:41;95216.50;;;3.05;65.18
7754;BME280;3921;42.266;23.122;2022-12-22T13:52:40;95118.47;;;2.37;65.11
7754;BME280;3921;42.266;23.122;2022-12-22T13:55:26;95164.31;;;2.58;65.12
7754;BME280;3921;42.266;23.122;2022-12-22T13:57:59;95301.03;;;3.56;65.45
7754;BME280;3921;42.266;23.122;2022-12-22T14:00:30;95482.69;;;4.61;65.83
7754;BME280;3921;42.266;23.122;2022-12-22T14:02:57;95243.25;;;3.21;65.86
7754;BME280;3921;42.266;23.122;2022-12-22T14:05:29;95382.22;;;4.03;66.82
7754;BME280;3921;42.266;23.122;2022-12-22T14:07:59;95363.72;;;3.88;66.61
7754;BME280;3921;42.266;23.122;2022-12-22T14:10:30;95197.13;;;2.87;66.79
7754;BME280;3921;42.266;23.122;2022-12-22T14:13:01;95174.28;;;2.61;67.10